Loïc Lerenard

Loïc Lerenard

Statistiques 2019

  • Courses courues : 44
  • Nb de victoires : 8
  • Nb de places : 16
  • Écart gagnant : 8
  • Réussite à la gagne : 18%
  • Réussite à la place : 36%
Musique : 9a 6a 3a Da 2a 7a Da 9a 1a 3a 4a 1a 0a 5a 2a 1a 5a 2a
DateRangCatégorieAlloc.Dist.HippodromeChevalRed. KmSpé.
24/03/19 9 Trot 13 000€ 2 875m Feurs Feria Fratelli 1'17"6 Attelé
24/03/19 6 Trot 13 000€ 2 225m Feurs Goliath du Caux 1'18"3 Attelé
24/03/19 3 Trot 13 000€ 2 875m Feurs Flying Wonder 1'16"7 Attelé
20/03/19 D Trot 24 000€ 2 625m Agen Fangio des Iris Attelé lire

A rapidement été sanctionné.

20/03/19 2 Trot 24 000€ 2 650m Agen Eclat des Noix 1'14"5 Attelé lire

Après avoir attendu en queue de peloton, a terminé de bonne manière.

17/03/19 7 Mixte 13 000€ 2 625m Paray Le Monial Emilie des Iris 1'19"0 Attelé
15/03/19 D Mixte 12 000€ 2 025m Saint Galmier Fifa de Chenou Attelé
15/03/19 9 Mixte 23 000€ 2 000m Saint Galmier Arenga de Neret 1'13"5 Attelé
10/03/19 1 Mixte 12 000€ 2 675m Chatillon Fortuna de Coudde 1'20"8 Attelé
04/03/19 3 Trot 18 000€ 2 650m Saint Galmier Flying Wonder 1'16"6 Attelé
03/03/19 4 Mixte 14 000€ 2 625m Paray Le Monial Desir de Banome 1'18"7 Attelé
03/03/19 1 Mixte 11 000€ 2 625m Paray Le Monial Galaxie du Loisir 1'20"8 Attelé
25/02/19 0 Trot 14 000€ 2 675m Chatillon Etincelle du Caux Attelé
25/02/19 5 Trot 10 000€ 2 600m Chatillon Grimm 1'23"7 Attelé
24/02/19 2 Trot 14 000€ 2 625m Paray Le Monial Canto de Bertrange 1'18"1 Attelé
24/02/19 1 Trot 13 000€ 2 625m Paray Le Monial Elite Speed 1'18"2 Attelé
21/02/19 5 Mixte 17 000€ 2 700m Lyon La Soie Guepard Griff 1'19"0 Attelé
21/02/19 2 Mixte 18 000€ 2 700m Lyon La Soie Felin du Loisir 1'17"2 Attelé
21/02/19 5 Mixte 20 000€ 2 725m Lyon La Soie Eclat des Noix 1'15"7 Attelé
21/02/19 4 Mixte 18 000€ 2 700m Lyon La Soie Dgin du Caux 1'15"8 Attelé
20/02/19 8 Trot 13 000€ 2 000m Saint Galmier Goliath du Caux 1'16"7 Attelé lire

N'a joué aucun rôle utile.

16/02/19 0 Trot 13 000€ 2 000m Saint Galmier Goliath du Caux Attelé
16/02/19 1 Trot 16 000€ 2 675m Saint Galmier Feria Fratelli 1'17"5 Attelé
16/02/19 1 Trot 16 000€ 2 650m Saint Galmier Felin du Loisir 1'18"7 Attelé
16/02/19 D Trot 28 000€ 2 650m Saint Galmier Bonviva Attelé
16/02/19 0 Trot 18 000€ 2 600m Saint Galmier Dgin du Caux Attelé
10/02/19 D Trot 15 000€ 2 700m Lyon La Soie Ecu du Chassin Attelé
10/02/19 1 Trot 13 000€ 2 700m Lyon La Soie Elite Speed 1'18"8 Attelé
10/02/19 3 Trot 13 000€ 2 050m Lyon La Soie Feria Fratelli 1'19"0 Attelé
03/02/19 1 Trot 17 000€ 2 700m Lyon La Soie Eclat des Noix 1'17"2 Attelé
03/02/19 D Trot 12 000€ 2 050m Lyon La Soie Fortuna de Coudde Attelé
03/02/19 D Trot 12 000€ 2 050m Lyon La Soie Felicia de Forges Attelé
03/02/19 8 Trot 11 000€ 2 050m Lyon La Soie Goliath du Caux 1'21"2 Attelé
31/01/19 9 Trot 18 000€ 2 700m Lyon La Soie Flying Wonder 1'20"2 Attelé
31/01/19 0 Trot 21 000€ 2 700m Lyon La Soie Coyote du Caux Attelé
26/01/19 D Trot 18 000€ 2 650m Saint Galmier Ecu du Chassin Attelé
26/01/19 0 Trot 24 000€ 2 000m Saint Galmier Blumberg Delo Attelé
24/01/19 2 Trot 12 000€ 2 700m Lyon La Soie Ellee du Metz 1'18"1 Attelé
24/01/19 2 Trot 16 000€ 2 725m Lyon La Soie Flying Wonder 1'19"0 Attelé
24/01/19 D Trot 18 000€ 2 700m Lyon La Soie Cadence d'Urzy Attelé
15/01/19 D Trot 18 000€ 2 700m Lyon La Soie Frisson de Brume Attelé
15/01/19 7 Trot 18 000€ 2 700m Lyon La Soie Ecu du Chassin 1'17"7 Attelé
13/01/19 8 Trot 19 000€ 2 150m Cagnes Sur Mer Ellee du Metz 1'15"1 Attelé
13/01/19 1 Trot 19 000€ 2 150m Cagnes Sur Mer Eclat des Noix 1'14"3 Attelé
16/12/18 D Trot 12 000€ 2 000m Lyon Parilly Felicia de Forges Attelé
16/12/18 5 Trot 12 000€ 2 000m Lyon Parilly Fortuna de Coudde 1'19"0 Attelé
02/12/18 D Trot 12 000€ 2 850m Lyon Parilly Friend de Joudes Attelé
02/12/18 4 Trot 12 000€ 2 850m Lyon Parilly Fortuna de Coudde 1'20"9 Attelé
02/12/18 D Trot 13 000€ 2 100m Lyon Parilly Elite Speed Attelé
20/11/18 6 Trot 40 000€ 2 850m Lyon Parilly Day To Day 1'17"3 Attelé